ěÝzenÝ letovÚho provozu ╚eskÚ republiky
Letiste: LKPR Aktualizace: 13.07.2024 01:00:41  UTC
 METAR LKPR 13.07. 01:00 ...
METAR LKPR 130100Z 23011KT 9999 FEW007 18/18 Q1009 NOSIG=
 TAF LKPR 12.07. 23:00 ...
TAF LKPR 122300Z 1300/1406 24006KT 9999 SCT035      TEMPO 1300/1306 SHRA BKN025TCU      PROB30 TEMPO 1300/1303 26016KT 3000 TSRA BKN014CB      PROB30 TEMPO 1313/1321 SHRA SCT030TCU      BECMG 1321/1323 VRB02KT CAVOK      PROB30 TEMPO 1401/1406 4000 BR NSC=